createdAt,value
2023-02-19T00:00:13.247Z,10.15
2023-02-19T00:01:13.261Z,10.17
2023-02-19T00:02:13.216Z,10.18
2023-02-19T00:03:13.256Z,10.15
2023-02-19T00:04:13.205Z,10.18
2023-02-19T00:05:13.253Z,10.18
2023-02-19T00:06:13.207Z,10.18
2023-02-19T00:07:13.193Z,10.19
2023-02-19T00:08:13.165Z,10.19
2023-02-19T00:09:13.180Z,10.22
2023-02-19T00:10:13.129Z,10.21
2023-02-19T00:11:13.138Z,10.24
2023-02-19T00:12:13.137Z,10.24
2023-02-19T00:13:13.149Z,10.26
2023-02-19T00:14:13.089Z,10.26
2023-02-19T00:15:13.103Z,10.26
2023-02-19T00:16:13.051Z,10.26
2023-02-19T00:17:13.113Z,10.28
2023-02-19T00:18:13.050Z,10.28
2023-02-19T00:19:13.065Z,10.26
2023-02-19T00:20:13.021Z,10.28
2023-02-19T00:21:13.092Z,10.28
2023-02-19T00:22:12.990Z,10.26
2023-02-19T00:23:13.024Z,10.26
2023-02-19T00:24:12.967Z,10.25
2023-02-19T00:25:13.005Z,10.24
2023-02-19T00:26:18.423Z,10.24
2023-02-19T00:27:13.963Z,10.22
2023-02-19T00:28:12.936Z,10.24
2023-02-19T00:29:12.956Z,10.24
2023-02-19T00:30:12.978Z,10.22
2023-02-19T00:31:13.324Z,10.21
2023-02-19T00:32:12.938Z,10.19
2023-02-19T00:33:12.895Z,10.21
2023-02-19T00:34:12.862Z,10.19
2023-02-19T00:35:12.916Z,10.19
2023-02-19T00:36:12.831Z,10.21
2023-02-19T00:37:12.873Z,10.21
2023-02-19T00:38:12.807Z,10.22
2023-02-19T00:39:12.872Z,10.22
2023-02-19T00:40:12.802Z,10.21
2023-02-19T00:41:12.802Z,10.21
2023-02-19T00:42:12.780Z,10.19
2023-02-19T00:43:12.782Z,10.19
2023-02-19T00:44:12.760Z,10.19
2023-02-19T00:45:12.764Z,10.17
2023-02-19T00:46:12.810Z,10.18
2023-02-19T00:47:12.742Z,10.17
2023-02-19T00:48:12.720Z,10.17
2023-02-19T00:49:12.730Z,10.17
2023-02-19T00:50:12.690Z,10.17
2023-02-19T00:51:12.815Z,10.17
2023-02-19T00:52:12.665Z,10.17
2023-02-19T00:53:12.692Z,10.15
2023-02-19T00:54:12.679Z,10.15
2023-02-19T00:55:12.655Z,10.15
2023-02-19T00:56:12.630Z,10.15
2023-02-19T00:57:12.621Z,10.15
2023-02-19T00:58:12.628Z,10.14
2023-02-19T00:59:12.626Z,10.14
2023-02-19T01:00:12.614Z,10.14
2023-02-19T01:01:12.653Z,10.12
2023-02-19T01:02:12.564Z,10.12
2023-02-19T01:03:12.565Z,10.10
2023-02-19T01:04:12.536Z,10.10
2023-02-19T01:05:12.586Z,10.12
2023-02-19T01:06:12.544Z,10.12
2023-02-19T01:07:12.526Z,10.14
2023-02-19T01:08:12.497Z,10.12
2023-02-19T01:09:12.703Z,10.12
2023-02-19T01:10:12.461Z,10.14
2023-02-19T01:11:12.919Z,10.12
2023-02-19T01:12:12.457Z,10.14
2023-02-19T01:13:12.441Z,10.12
2023-02-19T01:14:12.433Z,10.12
2023-02-19T01:15:12.533Z,10.12
2023-02-19T01:16:12.474Z,10.10
2023-02-19T01:17:12.435Z,10.14
2023-02-19T01:18:12.368Z,10.14
2023-02-19T01:19:12.366Z,10.12
2023-02-19T01:20:12.370Z,10.14
2023-02-19T01:21:12.536Z,10.12
2023-02-19T01:22:12.320Z,10.12
2023-02-19T01:23:12.342Z,10.12
2023-02-19T01:24:12.299Z,10.12
2023-02-19T01:25:12.310Z,10.10
2023-02-19T01:26:12.322Z,10.10
2023-02-19T01:27:12.306Z,10.15
2023-02-19T01:28:12.252Z,10.12
2023-02-19T01:29:12.269Z,10.14
2023-02-19T01:30:12.257Z,10.10
2023-02-19T01:31:12.702Z,10.10
2023-02-19T01:32:12.324Z,10.10
2023-02-19T01:33:12.245Z,10.12
2023-02-19T01:34:13.474Z,10.12
2023-02-19T01:35:12.194Z,10.12
2023-02-19T01:36:12.176Z,10.09
2023-02-19T01:37:12.194Z,10.10
2023-02-19T01:38:13.243Z,10.12
2023-02-19T01:39:12.143Z,10.10
2023-02-19T01:40:12.112Z,10.12
2023-02-19T01:41:12.400Z,10.14
2023-02-19T01:42:12.117Z,10.18
2023-02-19T01:43:12.134Z,10.18
2023-02-19T01:44:12.078Z,10.22
2023-02-19T01:45:12.829Z,10.22
2023-02-19T01:46:12.049Z,10.22
2023-02-19T01:47:12.059Z,10.22
2023-02-19T01:48:13.275Z,10.24
2023-02-19T01:49:12.073Z,10.24
2023-02-19T01:50:13.329Z,10.25
2023-02-19T01:51:12.938Z,10.26
2023-02-19T01:52:11.997Z,10.26
2023-02-19T01:53:12.858Z,10.28
2023-02-19T01:54:12.932Z,10.32
2023-02-19T01:55:11.972Z,10.33
2023-02-19T01:56:11.970Z,10.33
2023-02-19T01:57:12.942Z,10.34
2023-02-19T01:58:11.953Z,10.36
2023-02-19T01:59:11.947Z,10.34
2023-02-19T02:00:11.933Z,10.34
2023-02-19T02:01:12.402Z,10.36
2023-02-19T02:02:18.263Z,10.36
2023-02-19T02:03:11.897Z,10.39
2023-02-19T02:04:11.868Z,10.39
2023-02-19T02:05:11.857Z,10.40
2023-02-19T02:06:11.824Z,10.42
2023-02-19T02:07:11.860Z,10.42
2023-02-19T02:08:11.795Z,10.44
2023-02-19T02:09:12.773Z,10.44
2023-02-19T02:10:12.750Z,10.44
2023-02-19T02:11:12.049Z,10.46
2023-02-19T02:12:11.768Z,10.46
2023-02-19T02:13:11.773Z,10.47
2023-02-19T02:14:11.747Z,10.47
2023-02-19T02:15:11.750Z,10.51
2023-02-19T02:16:11.732Z,10.51
2023-02-19T02:17:11.750Z,10.47
2023-02-19T02:18:11.688Z,10.47
2023-02-19T02:19:11.728Z,10.46
2023-02-19T02:20:11.711Z,10.47
2023-02-19T02:21:12.000Z,10.47
2023-02-19T02:22:11.669Z,10.46
2023-02-19T02:23:12.628Z,10.46
2023-02-19T02:24:11.631Z,10.46
2023-02-19T02:25:11.642Z,10.51
2023-02-19T02:26:11.635Z,10.51
2023-02-19T02:27:11.643Z,10.51
2023-02-19T02:28:11.582Z,10.51
2023-02-19T02:29:11.597Z,10.51
2023-02-19T02:30:11.620Z,10.52
2023-02-19T02:31:11.966Z,10.53
2023-02-19T02:32:11.645Z,10.55
2023-02-19T02:33:11.553Z,10.53
2023-02-19T02:34:11.512Z,10.53
2023-02-19T02:35:11.568Z,10.53
2023-02-19T02:36:11.490Z,10.56
2023-02-19T02:37:11.520Z,10.58
2023-02-19T02:38:11.492Z,10.59
2023-02-19T02:39:11.668Z,10.60
2023-02-19T02:40:11.449Z,10.62
2023-02-19T02:41:11.773Z,10.62
2023-02-19T02:42:11.459Z,10.59
2023-02-19T02:43:11.440Z,10.60
2023-02-19T02:44:11.490Z,10.60
2023-02-19T02:45:11.439Z,10.62
2023-02-19T02:46:11.553Z,10.63
2023-02-19T02:47:11.415Z,10.65
2023-02-19T02:48:11.359Z,10.65
2023-02-19T02:49:11.362Z,10.65
2023-02-19T02:50:11.393Z,10.66
2023-02-19T02:51:11.776Z,10.66
2023-02-19T02:52:11.324Z,10.68
2023-02-19T02:53:11.333Z,10.70
2023-02-19T02:54:11.387Z,10.68
2023-02-19T02:55:11.337Z,10.68
2023-02-19T02:56:11.272Z,10.66
2023-02-19T02:57:11.302Z,10.68
2023-02-19T02:58:11.242Z,10.68
2023-02-19T02:59:11.268Z,10.68
2023-02-19T03:00:11.220Z,10.68
2023-02-19T03:01:11.581Z,10.70
2023-02-19T03:02:11.567Z,10.70
2023-02-19T03:03:11.204Z,10.68
2023-02-19T03:04:12.153Z,10.68
2023-02-19T03:05:11.195Z,10.70
2023-02-19T03:06:11.154Z,10.70
2023-02-19T03:07:11.214Z,10.71
2023-02-19T03:08:11.134Z,10.73
2023-02-19T03:09:11.144Z,10.73
2023-02-19T03:10:11.123Z,10.73
2023-02-19T03:11:11.408Z,10.73
2023-02-19T03:12:11.119Z,10.73
2023-02-19T03:13:11.094Z,10.74
2023-02-19T03:14:11.089Z,10.77
2023-02-19T03:15:11.060Z,10.77
2023-02-19T03:16:11.096Z,10.77
2023-02-19T03:17:11.029Z,10.77
2023-02-19T03:18:11.037Z,10.74
2023-02-19T03:19:11.988Z,10.76
2023-02-19T03:20:11.027Z,10.76
2023-02-19T03:21:11.336Z,10.76
2023-02-19T03:22:11.004Z,10.74
2023-02-19T03:23:10.985Z,10.76
2023-02-19T03:24:10.974Z,10.74
2023-02-19T03:25:10.932Z,10.73
2023-02-19T03:26:10.962Z,10.74
2023-02-19T03:27:10.920Z,10.71
2023-02-19T03:28:10.934Z,10.73
2023-02-19T03:29:10.885Z,10.73
2023-02-19T03:30:10.972Z,10.71
2023-02-19T03:31:11.294Z,10.68
2023-02-19T03:32:10.960Z,10.66
2023-02-19T03:33:10.866Z,10.66
2023-02-19T03:34:10.849Z,10.65
2023-02-19T03:35:10.817Z,10.62
2023-02-19T03:36:10.894Z,10.60
2023-02-19T03:37:10.805Z,10.56
2023-02-19T03:38:10.822Z,10.58
2023-02-19T03:39:10.765Z,10.56
2023-02-19T03:40:10.790Z,10.56
2023-02-19T03:41:11.186Z,10.56
2023-02-19T03:42:10.785Z,10.58
2023-02-19T03:43:10.751Z,10.56
2023-02-19T03:44:10.766Z,10.55
2023-02-19T03:45:10.709Z,10.55
2023-02-19T03:46:10.766Z,10.52
2023-02-19T03:47:10.704Z,10.51
2023-02-19T03:48:10.723Z,10.46
2023-02-19T03:49:10.669Z,10.44
2023-02-19T03:50:10.679Z,10.43
2023-02-19T03:51:11.104Z,10.43
2023-02-19T03:52:10.684Z,10.42
2023-02-19T03:53:10.641Z,10.42
2023-02-19T03:54:10.634Z,10.42
2023-02-19T03:55:10.598Z,10.43
2023-02-19T03:56:10.626Z,10.43
2023-02-19T03:57:10.608Z,10.44
2023-02-19T03:58:10.611Z,10.42
2023-02-19T03:59:10.584Z,10.42
2023-02-19T04:00:10.593Z,10.40
2023-02-19T04:01:10.877Z,10.42
2023-02-19T04:02:10.633Z,10.40
2023-02-19T04:03:10.505Z,10.40
2023-02-19T04:04:10.542Z,10.42
2023-02-19T04:05:12.025Z,10.40
2023-02-19T04:06:10.513Z,10.39
2023-02-19T04:07:10.484Z,10.37
2023-02-19T04:08:10.474Z,10.37
2023-02-19T04:09:10.445Z,10.36
2023-02-19T04:10:10.466Z,10.34
2023-02-19T04:11:10.786Z,10.36
2023-02-19T04:12:10.447Z,10.34
2023-02-19T04:13:10.407Z,10.36
2023-02-19T04:14:11.397Z,10.36
2023-02-19T04:15:10.387Z,10.36
2023-02-19T04:16:10.393Z,10.37
2023-02-19T04:17:10.349Z,10.37
2023-02-19T04:18:10.361Z,10.36
2023-02-19T04:19:10.336Z,10.36
2023-02-19T04:20:10.363Z,10.33
2023-02-19T04:21:10.664Z,10.32
2023-02-19T04:22:10.331Z,10.28
2023-02-19T04:23:10.285Z,10.26
2023-02-19T04:24:10.421Z,10.25
2023-02-19T04:25:10.293Z,10.25
2023-02-19T04:26:10.272Z,10.26
2023-02-19T04:27:10.260Z,10.24
2023-02-19T04:28:10.263Z,10.24
2023-02-19T04:29:10.214Z,10.24
2023-02-19T04:30:10.290Z,10.22
2023-02-19T04:31:10.556Z,10.21
2023-02-19T04:32:10.203Z,10.24
2023-02-19T04:33:10.184Z,10.25
2023-02-19T04:34:10.187Z,10.22
2023-02-19T04:35:10.169Z,10.21
2023-02-19T04:36:10.169Z,10.18
2023-02-19T04:37:10.127Z,10.17
2023-02-19T04:38:10.142Z,10.15
2023-02-19T04:39:10.113Z,10.14
2023-02-19T04:40:10.118Z,10.12
2023-02-19T04:41:10.429Z,10.14
2023-02-19T04:42:10.115Z,10.10
2023-02-19T04:43:10.050Z,10.09
2023-02-19T04:44:10.088Z,10.09
2023-02-19T04:45:10.037Z,10.07
2023-02-19T04:46:10.093Z,10.07
2023-02-19T04:47:10.028Z,10.04
2023-02-19T04:48:10.022Z,10.00
2023-02-19T04:49:09.995Z,9.97
2023-02-19T04:50:10.006Z,9.96
2023-02-19T04:51:10.407Z,9.96
2023-02-19T04:52:09.983Z,9.96
2023-02-19T04:53:09.959Z,9.97
2023-02-19T04:54:09.967Z,9.97
2023-02-19T04:55:09.947Z,9.99
2023-02-19T04:56:09.947Z,9.97
2023-02-19T04:57:09.910Z,9.96
2023-02-19T04:58:09.925Z,9.97
2023-02-19T04:59:09.872Z,9.99
2023-02-19T05:00:09.892Z,9.96
2023-02-19T05:01:10.539Z,9.91
2023-02-19T05:02:09.865Z,9.82
2023-02-19T05:03:09.824Z,9.81
2023-02-19T05:04:09.889Z,9.78
2023-02-19T05:05:09.819Z,9.78
2023-02-19T05:06:09.867Z,9.79
2023-02-19T05:07:09.809Z,9.82
2023-02-19T05:08:09.806Z,9.79
2023-02-19T05:09:09.768Z,9.81
2023-02-19T05:10:09.812Z,9.76
2023-02-19T05:11:10.137Z,9.70
2023-02-19T05:12:09.798Z,9.68
2023-02-19T05:13:09.768Z,9.66
2023-02-19T05:14:09.732Z,9.66
2023-02-19T05:15:09.708Z,9.67
2023-02-19T05:16:09.751Z,9.66
2023-02-19T05:17:09.684Z,9.64
2023-02-19T05:18:09.761Z,9.66
2023-02-19T05:19:09.651Z,9.64
2023-02-19T05:20:09.677Z,9.60
2023-02-19T05:21:09.998Z,9.58
2023-02-19T05:22:09.676Z,9.58
2023-02-19T05:23:09.609Z,9.57
2023-02-19T05:24:09.628Z,9.56
2023-02-19T05:25:09.605Z,9.52
2023-02-19T05:26:09.645Z,9.52
2023-02-19T05:27:09.553Z,9.52
2023-02-19T05:28:09.588Z,9.48
2023-02-19T05:29:09.542Z,9.43
2023-02-19T05:30:09.583Z,9.38
2023-02-19T05:31:09.936Z,9.39
2023-02-19T05:32:09.571Z,9.39
2023-02-19T05:33:09.500Z,9.40
2023-02-19T05:34:09.512Z,9.40
2023-02-19T05:35:09.466Z,9.40
2023-02-19T05:36:09.502Z,9.42
2023-02-19T05:37:09.445Z,9.40
2023-02-19T05:38:09.461Z,9.42
2023-02-19T05:39:09.470Z,9.45
2023-02-19T05:40:09.486Z,9.46
2023-02-19T05:41:09.748Z,9.49
2023-02-19T05:42:09.439Z,9.52
2023-02-19T05:43:09.452Z,9.53
2023-02-19T05:44:09.400Z,9.58
2023-02-19T05:45:09.379Z,9.60
2023-02-19T05:46:09.443Z,9.64
2023-02-19T05:47:09.343Z,9.66
2023-02-19T05:48:09.381Z,9.68
2023-02-19T05:49:09.330Z,9.70
2023-02-19T05:50:09.351Z,9.73
2023-02-19T05:51:09.566Z,9.75
2023-02-19T05:52:09.361Z,9.75
2023-02-19T05:53:09.278Z,9.76
2023-02-19T05:54:09.454Z,9.79
2023-02-19T05:55:09.258Z,9.79
2023-02-19T05:56:09.282Z,9.78
2023-02-19T05:57:09.239Z,9.78
2023-02-19T05:58:09.267Z,9.79
2023-02-19T05:59:09.244Z,9.81
2023-02-19T06:00:09.278Z,9.82
2023-02-19T06:01:09.713Z,9.83
2023-02-19T06:02:09.229Z,9.83
2023-02-19T06:03:09.161Z,9.82
2023-02-19T06:04:09.267Z,9.79
2023-02-19T06:05:09.167Z,9.79
2023-02-19T06:06:09.149Z,9.81
2023-02-19T06:07:09.125Z,9.79
2023-02-19T06:08:09.139Z,9.78
2023-02-19T06:09:09.114Z,9.76
2023-02-19T06:10:09.110Z,9.76
2023-02-19T06:11:09.358Z,9.76
2023-02-19T06:12:09.083Z,9.79
2023-02-19T06:13:09.065Z,9.79
2023-02-19T06:14:09.068Z,9.79
2023-02-19T06:15:09.035Z,9.81
2023-02-19T06:16:09.086Z,9.82
2023-02-19T06:17:09.031Z,9.81
2023-02-19T06:18:09.049Z,9.82
2023-02-19T06:19:08.994Z,9.82
2023-02-19T06:20:09.001Z,9.85
2023-02-19T06:21:09.444Z,9.85
2023-02-19T06:22:08.970Z,9.85
2023-02-19T06:23:08.941Z,9.85
2023-02-19T06:24:09.036Z,9.86
2023-02-19T06:25:08.916Z,9.83
2023-02-19T06:26:08.949Z,9.83
2023-02-19T06:27:08.890Z,9.82
2023-02-19T06:28:09.862Z,9.81
2023-02-19T06:29:08.893Z,9.82
2023-02-19T06:30:08.912Z,9.82
2023-02-19T06:31:09.102Z,9.82
2023-02-19T06:32:09.078Z,9.82
2023-02-19T06:33:08.837Z,9.85
2023-02-19T06:34:08.856Z,9.85
2023-02-19T06:35:08.813Z,9.86
2023-02-19T06:36:08.834Z,9.85
2023-02-19T06:37:08.790Z,9.85
2023-02-19T06:38:08.805Z,9.85
2023-02-19T06:39:08.793Z,9.83
2023-02-19T06:40:08.783Z,9.83
2023-02-19T06:41:09.220Z,9.85
2023-02-19T06:42:08.761Z,9.86
2023-02-19T06:43:08.741Z,9.85
2023-02-19T06:44:08.733Z,9.86
2023-02-19T06:45:08.702Z,9.88
2023-02-19T06:46:08.724Z,9.86
2023-02-19T06:47:08.693Z,9.86
2023-02-19T06:48:08.708Z,9.85
2023-02-19T06:49:08.654Z,9.88
2023-02-19T06:50:08.681Z,9.86
2023-02-19T06:51:08.940Z,9.85
2023-02-19T06:52:08.696Z,9.85
2023-02-19T06:53:08.626Z,9.86
2023-02-19T06:54:08.629Z,9.88
2023-02-19T06:55:08.604Z,9.86
2023-02-19T06:56:08.617Z,9.86
2023-02-19T06:57:08.604Z,9.88
2023-02-19T06:58:08.578Z,9.88
2023-02-19T06:59:08.559Z,9.88
2023-02-19T07:00:08.578Z,9.91
2023-02-19T07:01:08.869Z,9.93
2023-02-19T07:02:08.553Z,9.93
2023-02-19T07:03:08.499Z,9.94
2023-02-19T07:04:08.580Z,9.93
2023-02-19T07:05:08.524Z,9.93
2023-02-19T07:06:08.505Z,9.89
2023-02-19T07:07:08.463Z,9.88
2023-02-19T07:08:08.501Z,9.89
2023-02-19T07:09:08.461Z,9.89
2023-02-19T07:10:08.448Z,9.89
2023-02-19T07:11:08.614Z,9.89
2023-02-19T07:12:08.441Z,9.89
2023-02-19T07:13:08.404Z,9.91
2023-02-19T07:14:08.407Z,9.93
2023-02-19T07:15:08.377Z,9.94
2023-02-19T07:16:08.418Z,9.93
2023-02-19T07:17:08.360Z,9.93
2023-02-19T07:18:08.358Z,9.91
2023-02-19T07:19:08.315Z,9.93
2023-02-19T07:20:08.367Z,9.91
2023-02-19T07:21:08.531Z,9.88
2023-02-19T07:22:08.328Z,9.91
2023-02-19T07:23:08.286Z,9.91
2023-02-19T07:24:08.301Z,9.91
2023-02-19T07:25:08.257Z,9.93
2023-02-19T07:26:08.264Z,9.91
2023-02-19T07:27:08.227Z,9.89
2023-02-19T07:28:08.245Z,9.88
2023-02-19T07:29:08.231Z,9.88
2023-02-19T07:30:08.241Z,9.91
2023-02-19T07:31:08.449Z,9.94
2023-02-19T07:32:08.213Z,9.96
2023-02-19T07:33:10.441Z,9.97
2023-02-19T07:34:08.176Z,9.97
2023-02-19T07:35:08.166Z,9.96
2023-02-19T07:36:08.149Z,9.94
2023-02-19T07:37:08.155Z,9.94
2023-02-19T07:38:08.111Z,9.96
2023-02-19T07:39:10.136Z,9.99
2023-02-19T07:40:08.093Z,10.00
2023-02-19T07:41:08.127Z,9.97
2023-02-19T07:42:08.074Z,9.97
2023-02-19T07:43:08.075Z,9.97
2023-02-19T07:44:08.050Z,9.97
2023-02-19T07:45:08.063Z,9.94
2023-02-19T07:46:08.035Z,9.94
2023-02-19T07:47:08.038Z,9.94
2023-02-19T07:48:08.009Z,9.94
2023-02-19T07:49:08.059Z,9.93
2023-02-19T07:50:07.981Z,9.91
2023-02-19T07:51:08.076Z,9.93
2023-02-19T07:52:07.949Z,9.96
2023-02-19T07:53:07.964Z,9.99
2023-02-19T07:54:07.958Z,10.00
2023-02-19T07:55:07.943Z,10.01
2023-02-19T07:56:07.919Z,10.03
2023-02-19T07:57:07.927Z,10.01
2023-02-19T07:58:07.914Z,10.04
2023-02-19T07:59:07.904Z,10.03
2023-02-19T08:00:07.873Z,10.03
2023-02-19T08:01:07.946Z,10.01
2023-02-19T08:02:07.846Z,10.03
2023-02-19T08:03:07.907Z,9.99
2023-02-19T08:04:07.835Z,9.97
2023-02-19T08:05:07.843Z,9.96
2023-02-19T08:06:07.838Z,9.97
2023-02-19T08:07:07.813Z,9.97
2023-02-19T08:08:07.789Z,9.99
2023-02-19T08:09:07.793Z,9.97
2023-02-19T08:10:07.772Z,10.00
2023-02-19T08:11:07.819Z,10.01
2023-02-19T08:12:07.734Z,10.00
2023-02-19T08:13:07.744Z,10.03
2023-02-19T08:14:07.739Z,10.03
2023-02-19T08:15:07.729Z,10.01
2023-02-19T08:16:17.295Z,10.03
2023-02-19T08:17:08.763Z,9.99
2023-02-19T08:18:07.681Z,9.96
2023-02-19T08:19:07.711Z,9.97
2023-02-19T08:20:07.660Z,9.97
2023-02-19T08:21:07.718Z,9.96
2023-02-19T08:22:07.626Z,9.93
2023-02-19T08:23:07.631Z,9.96
2023-02-19T08:24:07.602Z,9.93
2023-02-19T08:25:07.644Z,9.94
2023-02-19T08:26:07.590Z,9.91
2023-02-19T08:27:07.594Z,9.89
2023-02-19T08:28:07.561Z,9.82
2023-02-19T08:29:07.594Z,9.63
2023-02-19T08:30:07.546Z,9.24
2023-02-19T08:31:07.705Z,8.83
2023-02-19T08:32:07.564Z,8.58
2023-02-19T08:33:07.537Z,8.33
2023-02-19T08:34:07.495Z,8.21
2023-02-19T08:35:07.517Z,8.17
2023-02-19T08:36:07.490Z,8.12
2023-02-19T08:37:07.489Z,8.04
2023-02-19T08:38:07.444Z,8.02
2023-02-19T08:39:07.471Z,7.94
2023-02-19T08:40:07.454Z,7.85
2023-02-19T08:41:07.492Z,7.79
2023-02-19T08:42:07.401Z,7.74
2023-02-19T08:43:07.408Z,7.69
2023-02-19T08:44:07.376Z,7.66
2023-02-19T08:45:07.406Z,7.67
2023-02-19T08:46:07.509Z,7.71
2023-02-19T08:47:07.360Z,7.66
2023-02-19T08:48:07.342Z,7.66
2023-02-19T08:49:07.350Z,7.62
2023-02-19T08:50:07.329Z,7.62
2023-02-19T08:51:07.326Z,7.58
2023-02-19T08:52:07.307Z,7.60
2023-02-19T08:53:07.307Z,7.66
2023-02-19T08:54:07.260Z,7.71
2023-02-19T08:55:07.330Z,7.72
2023-02-19T08:56:07.245Z,7.78
2023-02-19T08:57:07.246Z,7.77
2023-02-19T08:58:07.214Z,7.75
2023-02-19T08:59:07.244Z,7.77
2023-02-19T09:00:07.200Z,7.75
2023-02-19T09:01:07.234Z,7.69
2023-02-19T09:02:07.223Z,7.67
2023-02-19T09:03:07.216Z,7.59
2023-02-19T09:04:07.162Z,7.59
2023-02-19T09:05:07.181Z,7.60
2023-02-19T09:06:07.165Z,7.67
2023-02-19T09:07:07.157Z,7.69
2023-02-19T09:08:07.100Z,7.67
2023-02-19T09:09:07.121Z,7.67
2023-02-19T09:10:07.224Z,7.71
2023-02-19T09:11:07.165Z,7.72
2023-02-19T09:12:07.114Z,7.75
2023-02-19T09:13:07.162Z,7.77
2023-02-19T09:14:07.085Z,7.71
2023-02-19T09:15:07.080Z,7.67
2023-02-19T09:16:07.344Z,7.71
2023-02-19T09:17:07.069Z,7.66
2023-02-19T09:18:07.039Z,7.56
2023-02-19T09:19:07.074Z,7.55
2023-02-19T09:20:06.999Z,7.50
2023-02-19T09:21:07.035Z,7.55
2023-02-19T09:22:07.052Z,7.59
2023-02-19T09:23:06.972Z,7.66
2023-02-19T09:24:06.981Z,7.69
2023-02-19T09:25:06.963Z,7.67
2023-02-19T09:26:06.987Z,7.67
2023-02-19T09:27:06.933Z,7.71
2023-02-19T09:28:06.888Z,7.69
2023-02-19T09:29:06.994Z,7.67
2023-02-19T09:30:06.929Z,7.69
2023-02-19T09:31:07.172Z,7.77
2023-02-19T09:32:06.862Z,7.74
2023-02-19T09:33:06.890Z,7.71
2023-02-19T09:34:06.866Z,7.69
2023-02-19T09:35:06.854Z,7.71
2023-02-19T09:36:06.867Z,7.69
2023-02-19T09:37:06.814Z,7.59
2023-02-19T09:38:06.810Z,7.56
2023-02-19T09:39:06.819Z,7.58
2023-02-19T09:40:06.815Z,7.59
2023-02-19T09:41:06.812Z,7.66
2023-02-19T09:42:06.744Z,7.69
2023-02-19T09:43:06.755Z,7.75
2023-02-19T09:44:06.716Z,7.79
2023-02-19T09:45:06.757Z,7.82
2023-02-19T09:46:06.820Z,7.84
2023-02-19T09:47:06.772Z,7.81
2023-02-19T09:48:06.699Z,7.79
2023-02-19T09:49:06.715Z,7.81
2023-02-19T09:50:06.679Z,7.71
2023-02-19T09:51:06.675Z,7.53
2023-02-19T09:52:06.638Z,7.45
2023-02-19T09:53:06.637Z,7.53
2023-02-19T09:54:06.606Z,7.60
2023-02-19T09:55:06.651Z,7.59
2023-02-19T09:56:06.598Z,7.56
2023-02-19T09:57:06.638Z,7.45
2023-02-19T09:58:06.578Z,7.49
2023-02-19T09:59:06.580Z,7.49
2023-02-19T10:00:07.970Z,7.47
2023-02-19T10:01:06.556Z,7.41
2023-02-19T10:02:06.545Z,7.35
2023-02-19T10:03:06.530Z,7.32
2023-02-19T10:04:06.491Z,7.40
2023-02-19T10:05:06.531Z,7.44
2023-02-19T10:06:07.787Z,7.49
2023-02-19T10:07:06.493Z,7.55
2023-02-19T10:08:06.468Z,7.53
2023-02-19T10:09:06.482Z,7.52
2023-02-19T10:10:06.432Z,7.45
2023-02-19T10:11:06.471Z,7.44
2023-02-19T10:12:06.402Z,7.38
2023-02-19T10:13:06.419Z,7.37
2023-02-19T10:14:06.381Z,7.40
2023-02-19T10:15:06.400Z,7.41
2023-02-19T10:16:06.470Z,7.42
2023-02-19T10:17:06.369Z,7.41
2023-02-19T10:18:06.370Z,7.44
2023-02-19T10:19:06.393Z,7.47
2023-02-19T10:20:06.308Z,7.49
2023-02-19T10:21:06.319Z,7.47
2023-02-19T10:22:06.299Z,7.38
2023-02-19T10:23:06.296Z,7.38
2023-02-19T10:24:06.285Z,7.41
2023-02-19T10:25:06.291Z,7.44
2023-02-19T10:26:06.300Z,7.47
2023-02-19T10:27:06.259Z,7.37
2023-02-19T10:28:06.272Z,7.27
2023-02-19T10:29:06.242Z,7.23
2023-02-19T10:30:06.218Z,7.23
2023-02-19T10:31:06.267Z,7.16
2023-02-19T10:32:06.207Z,7.07
2023-02-19T10:33:06.208Z,6.97
2023-02-19T10:34:06.158Z,6.98
2023-02-19T10:35:06.189Z,7.05
2023-02-19T10:36:06.169Z,7.07
2023-02-19T10:37:06.141Z,7.07
2023-02-19T10:38:06.123Z,7.15
2023-02-19T10:39:06.115Z,7.23
2023-02-19T10:40:06.106Z,7.19
2023-02-19T10:41:06.121Z,7.19
2023-02-19T10:42:06.087Z,7.24
2023-02-19T10:43:06.102Z,7.26
2023-02-19T10:44:06.038Z,7.29
2023-02-19T10:45:06.081Z,7.35
2023-02-19T10:46:06.124Z,7.41
2023-02-19T10:47:06.034Z,7.47
2023-02-19T10:48:06.009Z,7.55
2023-02-19T10:49:06.073Z,7.50
2023-02-19T10:50:05.982Z,7.42
2023-02-19T10:51:06.014Z,7.40
2023-02-19T10:52:05.958Z,7.40
2023-02-19T10:53:05.987Z,7.40
2023-02-19T10:54:05.978Z,7.40
2023-02-19T10:55:05.949Z,7.42
2023-02-19T10:56:05.955Z,7.38
2023-02-19T10:57:05.981Z,7.38
2023-02-19T10:58:05.912Z,7.35
2023-02-19T10:59:05.929Z,7.35
2023-02-19T11:00:05.886Z,7.34
2023-02-19T11:01:06.306Z,7.38
2023-02-19T11:02:05.861Z,7.42
2023-02-19T11:03:05.875Z,7.41
2023-02-19T11:04:05.865Z,7.41
2023-02-19T11:05:05.883Z,7.45
2023-02-19T11:06:05.817Z,7.52
2023-02-19T11:07:05.830Z,7.58
2023-02-19T11:08:05.839Z,7.55
2023-02-19T11:09:05.805Z,7.47
2023-02-19T11:10:05.763Z,7.42
2023-02-19T11:11:05.826Z,7.40
2023-02-19T11:12:06.438Z,7.38
2023-02-19T11:13:05.759Z,7.38
2023-02-19T11:14:05.717Z,7.42
2023-02-19T11:15:05.729Z,7.45
2023-02-19T11:16:05.758Z,7.50
2023-02-19T11:17:05.847Z,7.52
2023-02-19T11:18:05.711Z,7.45
2023-02-19T11:19:05.684Z,7.42
2023-02-19T11:20:05.708Z,7.41
2023-02-19T11:21:05.786Z,7.37
2023-02-19T11:22:05.706Z,7.34
2023-02-19T11:23:05.699Z,7.29
2023-02-19T11:24:05.667Z,7.27
2023-02-19T11:25:05.684Z,7.27
2023-02-19T11:26:05.711Z,7.29
2023-02-19T11:27:05.687Z,7.27
2023-02-19T11:28:05.616Z,7.17
2023-02-19T11:29:05.699Z,7.15
2023-02-19T11:30:05.717Z,7.09
2023-02-19T11:31:05.679Z,7.12
2023-02-19T11:32:05.663Z,7.13
2023-02-19T11:33:05.611Z,7.12
2023-02-19T11:34:05.549Z,7.09
2023-02-19T11:35:05.603Z,7.12
2023-02-19T11:36:05.563Z,7.15
2023-02-19T11:37:05.560Z,7.15
2023-02-19T11:38:05.474Z,7.20
2023-02-19T11:39:05.546Z,7.20
2023-02-19T11:40:05.508Z,7.29
2023-02-19T11:41:05.479Z,7.31
2023-02-19T11:42:05.481Z,7.34
2023-02-19T11:43:05.439Z,7.37
2023-02-19T11:44:05.383Z,7.42
2023-02-19T11:45:05.393Z,7.45
2023-02-19T11:46:05.485Z,7.49
2023-02-19T11:47:05.387Z,7.56
2023-02-19T11:48:05.402Z,7.58
2023-02-19T11:49:05.322Z,7.55
2023-02-19T11:50:05.346Z,7.50
2023-02-19T11:51:05.308Z,7.47
2023-02-19T11:52:05.353Z,7.55
2023-02-19T11:53:05.282Z,7.52
2023-02-19T11:54:05.308Z,7.49
2023-02-19T11:55:05.272Z,7.45
2023-02-19T11:56:05.311Z,7.42
2023-02-19T11:57:05.242Z,7.45
2023-02-19T11:58:05.260Z,7.49
2023-02-19T11:59:05.242Z,7.47
2023-02-19T12:00:05.232Z,7.49
2023-02-19T12:01:05.206Z,7.47
2023-02-19T12:02:05.233Z,7.50
2023-02-19T12:03:05.177Z,7.58
2023-02-19T12:04:05.206Z,7.62
2023-02-19T12:05:05.189Z,7.66
2023-02-19T12:06:05.170Z,7.60
2023-02-19T12:07:05.135Z,7.63
2023-02-19T12:08:05.168Z,7.66
2023-02-19T12:09:05.119Z,7.67
2023-02-19T12:10:05.124Z,7.60
2023-02-19T12:11:05.087Z,7.56
2023-02-19T12:12:05.105Z,7.58
2023-02-19T12:13:05.074Z,7.53
2023-02-19T12:14:05.106Z,7.52
2023-02-19T12:15:05.045Z,7.59
2023-02-19T12:16:05.060Z,7.63
2023-02-19T12:17:05.022Z,7.62
2023-02-19T12:18:05.056Z,7.63
2023-02-19T12:19:05.037Z,7.69
2023-02-19T12:20:05.038Z,7.74
2023-02-19T12:21:04.990Z,7.79
2023-02-19T12:22:05.006Z,7.79
2023-02-19T12:23:04.964Z,7.82
2023-02-19T12:24:05.048Z,7.79
2023-02-19T12:25:05.135Z,7.71
2023-02-19T12:26:05.007Z,7.66
2023-02-19T12:27:04.907Z,7.66
2023-02-19T12:28:05.011Z,7.63
2023-02-19T12:29:04.886Z,7.59
2023-02-19T12:30:04.928Z,7.59
2023-02-19T12:31:04.879Z,7.56
2023-02-19T12:32:04.923Z,7.59
2023-02-19T12:33:04.848Z,7.67
2023-02-19T12:34:04.851Z,7.71
2023-02-19T12:35:04.819Z,7.75
2023-02-19T12:36:04.832Z,7.77
2023-02-19T12:37:04.792Z,7.79
2023-02-19T12:38:04.830Z,7.85
2023-02-19T12:39:04.813Z,7.90
2023-02-19T12:40:04.789Z,7.82
2023-02-19T12:41:04.774Z,7.79
2023-02-19T12:42:04.770Z,7.79
2023-02-19T12:43:04.742Z,7.75
2023-02-19T12:44:04.765Z,7.72
2023-02-19T12:45:04.724Z,7.75
2023-02-19T12:46:04.797Z,7.77
2023-02-19T12:47:04.696Z,7.66
2023-02-19T12:48:04.694Z,7.62
2023-02-19T12:49:04.696Z,7.63
2023-02-19T12:50:04.668Z,7.67
2023-02-19T12:51:04.654Z,7.74
2023-02-19T12:52:04.656Z,7.81
2023-02-19T12:53:04.637Z,7.85
2023-02-19T12:54:04.646Z,7.82
2023-02-19T12:55:04.610Z,7.78
2023-02-19T12:56:04.623Z,7.71
2023-02-19T12:57:04.581Z,7.71
2023-02-19T12:58:04.598Z,7.71
2023-02-19T12:59:04.580Z,7.74
2023-02-19T13:00:04.571Z,7.79
2023-02-19T13:01:04.575Z,7.81
2023-02-19T13:02:04.578Z,7.84
2023-02-19T13:03:04.539Z,7.85
2023-02-19T13:04:04.528Z,7.90
2023-02-19T13:05:04.482Z,7.92
2023-02-19T13:06:04.541Z,7.90
2023-02-19T13:07:04.473Z,7.87
2023-02-19T13:08:04.499Z,7.85